sensor_id;sensor_type;location;lat;lon;timestamp;temperature;humidity
31735;DHT22;18313;48.518;9.124;2023-03-01T00:01:29;-0.40;99.90
31735;DHT22;18313;48.518;9.124;2023-03-01T00:03:58;-0.40;99.90
31735;DHT22;18313;48.518;9.124;2023-03-01T00:06:26;-0.40;99.90
31735;DHT22;18313;48.518;9.124;2023-03-01T00:08:54;-0.50;99.90
31735;DHT22;18313;48.518;9.124;2023-03-01T00:11:26;-0.50;99.90
31735;DHT22;18313;48.518;9.124;2023-03-01T00:13:56;-0.50;99.90
31735;DHT22;18313;48.518;9.124;2023-03-01T00:16:26;-0.60;99.90
31735;DHT22;18313;48.518;9.124;2023-03-01T00:18:55;-0.60;99.90
31735;DHT22;18313;48.518;9.124;2023-03-01T00:21:23;-0.70;99.90
31735;DHT22;18313;48.518;9.124;2023-03-01T00:23:50;-0.70;99.90
31735;DHT22;18313;48.518;9.124;2023-03-01T00:26:19;-0.70;99.90
31735;DHT22;18313;48.518;9.124;2023-03-01T00:28:46;-0.90;99.90
31735;DHT22;18313;48.518;9.124;2023-03-01T00:31:20;-0.90;99.90
31735;DHT22;18313;48.518;9.124;2023-03-01T00:33:47;-0.90;99.90
31735;DHT22;18313;48.518;9.124;2023-03-01T00:36:15;-0.80;99.90
31735;DHT22;18313;48.518;9.124;2023-03-01T00:38:44;-0.70;99.90
31735;DHT22;18313;48.518;9.124;2023-03-01T00:41:16;-0.70;99.90
31735;DHT22;18313;48.518;9.124;2023-03-01T00:43:44;-0.80;99.90
31735;DHT22;18313;48.518;9.124;2023-03-01T00:46:15;-0.90;99.90
31735;DHT22;18313;48.518;9.124;2023-03-01T00:48:42;-0.90;99.90
31735;DHT22;18313;48.518;9.124;2023-03-01T00:51:15;-1.00;99.90
31735;DHT22;18313;48.518;9.124;2023-03-01T00:53:43;-1.10;99.90
31735;DHT22;18313;48.518;9.124;2023-03-01T00:56:12;-1.10;99.90
31735;DHT22;18313;48.518;9.124;2023-03-01T00:58:39;-1.10;99.90
31735;DHT22;18313;48.518;9.124;2023-03-01T01:01:18;-1.10;99.90
31735;DHT22;18313;48.518;9.124;2023-03-01T01:03:54;-1.00;99.90
31735;DHT22;18313;48.518;9.124;2023-03-01T01:06:28;-1.10;99.90
31735;DHT22;18313;48.518;9.124;2023-03-01T01:08:56;-1.20;99.90
31735;DHT22;18313;48.518;9.124;2023-03-01T01:11:26;-1.20;99.90
31735;DHT22;18313;48.518;9.124;2023-03-01T01:13:53;-1.30;99.90
31735;DHT22;18313;48.518;9.124;2023-03-01T01:16:23;-1.30;99.90
31735;DHT22;18313;48.518;9.124;2023-03-01T01:18:51;-1.30;99.90
31735;DHT22;18313;48.518;9.124;2023-03-01T01:21:21;-1.30;99.90
31735;DHT22;18313;48.518;9.124;2023-03-01T01:23:48;-1.30;99.90
31735;DHT22;18313;48.518;9.124;2023-03-01T01:26:28;-1.30;99.90
31735;DHT22;18313;48.518;9.124;2023-03-01T01:28:57;-1.30;99.90
31735;DHT22;18313;48.518;9.124;2023-03-01T01:31:25;-1.30;99.90
31735;DHT22;18313;48.518;9.124;2023-03-01T01:33:53;-1.30;99.90
31735;DHT22;18313;48.518;9.124;2023-03-01T01:36:21;-1.30;99.90
31735;DHT22;18313;48.518;9.124;2023-03-01T01:38:48;-1.30;99.90
31735;DHT22;18313;48.518;9.124;2023-03-01T01:41:16;-1.30;99.90
31735;DHT22;18313;48.518;9.124;2023-03-01T01:43:48;-1.30;99.90
31735;DHT22;18313;48.518;9.124;2023-03-01T01:46:28;-1.30;99.90
31735;DHT22;18313;48.518;9.124;2023-03-01T01:49:05;-1.30;99.90
31735;DHT22;18313;48.518;9.124;2023-03-01T01:51:39;-1.30;99.90
31735;DHT22;18313;48.518;9.124;2023-03-01T01:54:16;-1.30;99.90
31735;DHT22;18313;48.518;9.124;2023-03-01T01:56:49;-1.20;99.90
31735;DHT22;18313;48.518;9.124;2023-03-01T01:59:19;-1.20;99.90
31735;DHT22;18313;48.518;9.124;2023-03-01T02:01:46;-1.20;99.90
31735;DHT22;18313;48.518;9.124;2023-03-01T02:04:13;-1.20;99.90
31735;DHT22;18313;48.518;9.124;2023-03-01T02:06:48;-1.20;99.90
31735;DHT22;18313;48.518;9.124;2023-03-01T02:09:19;-1.10;99.90
31735;DHT22;18313;48.518;9.124;2023-03-01T02:11:48;-1.10;99.90
31735;DHT22;18313;48.518;9.124;2023-03-01T02:14:15;-1.00;99.90
31735;DHT22;18313;48.518;9.124;2023-03-01T02:16:43;-1.00;99.90
31735;DHT22;18313;48.518;9.124;2023-03-01T02:19:22;-1.00;99.90
31735;DHT22;18313;48.518;9.124;2023-03-01T02:22:06;-1.00;99.90
31735;DHT22;18313;48.518;9.124;2023-03-01T02:27:41;-0.90;99.90
31735;DHT22;18313;48.518;9.124;2023-03-01T02:30:10;-0.90;99.90
31735;DHT22;18313;48.518;9.124;2023-03-01T02:32:40;-0.80;99.90
31735;DHT22;18313;48.518;9.124;2023-03-01T02:35:12;-0.80;99.90
31735;DHT22;18313;48.518;9.124;2023-03-01T02:37:41;-0.90;99.90
31735;DHT22;18313;48.518;9.124;2023-03-01T02:40:12;-0.90;99.90
31735;DHT22;18313;48.518;9.124;2023-03-01T02:42:53;-1.00;99.90
31735;DHT22;18313;48.518;9.124;2023-03-01T02:45:21;-1.00;99.90
31735;DHT22;18313;48.518;9.124;2023-03-01T02:47:48;-1.00;99.90
31735;DHT22;18313;48.518;9.124;2023-03-01T02:53:04;-0.90;99.90
31735;DHT22;18313;48.518;9.124;2023-03-01T02:55:34;-0.90;99.90
31735;DHT22;18313;48.518;9.124;2023-03-01T02:58:03;-0.90;99.90
31735;DHT22;18313;48.518;9.124;2023-03-01T03:00:38;-0.90;99.90
31735;DHT22;18313;48.518;9.124;2023-03-01T03:03:19;-1.00;99.90
31735;DHT22;18313;48.518;9.124;2023-03-01T03:05:48;-0.90;99.90
31735;DHT22;18313;48.518;9.124;2023-03-01T03:08:15;-0.90;99.90
31735;DHT22;18313;48.518;9.124;2023-03-01T03:10:51;-1.00;99.90
31735;DHT22;18313;48.518;9.124;2023-03-01T03:13:17;-1.00;99.90
31735;DHT22;18313;48.518;9.124;2023-03-01T03:15:45;-0.90;99.90
31735;DHT22;18313;48.518;9.124;2023-03-01T03:18:15;-0.90;99.90
31735;DHT22;18313;48.518;9.124;2023-03-01T03:20:43;-0.90;99.90
31735;DHT22;18313;48.518;9.124;2023-03-01T03:23:10;-0.90;99.90
31735;DHT22;18313;48.518;9.124;2023-03-01T03:25:38;-0.90;99.90
31735;DHT22;18313;48.518;9.124;2023-03-01T03:28:06;-0.90;99.90
31735;DHT22;18313;48.518;9.124;2023-03-01T03:30:40;-0.90;99.90
31735;DHT22;18313;48.518;9.124;2023-03-01T03:33:08;-0.80;99.90
31735;DHT22;18313;48.518;9.124;2023-03-01T03:35:46;-0.90;99.90
31735;DHT22;18313;48.518;9.124;2023-03-01T03:38:15;-0.90;99.90
31735;DHT22;18313;48.518;9.124;2023-03-01T03:40:48;-0.90;99.90
31735;DHT22;18313;48.518;9.124;2023-03-01T03:43:18;-0.90;99.90
31735;DHT22;18313;48.518;9.124;2023-03-01T03:45:47;-0.90;99.90
31735;DHT22;18313;48.518;9.124;2023-03-01T03:48:15;-1.00;99.90
31735;DHT22;18313;48.518;9.124;2023-03-01T03:50:47;-1.00;99.90
31735;DHT22;18313;48.518;9.124;2023-03-01T03:53:15;-1.00;99.90
31735;DHT22;18313;48.518;9.124;2023-03-01T03:55:43;-1.00;99.90
31735;DHT22;18313;48.518;9.124;2023-03-01T03:58:11;-1.00;99.90
31735;DHT22;18313;48.518;9.124;2023-03-01T04:00:40;-1.00;99.90
31735;DHT22;18313;48.518;9.124;2023-03-01T04:03:08;-1.00;99.90
31735;DHT22;18313;48.518;9.124;2023-03-01T04:05:37;-1.00;99.90
31735;DHT22;18313;48.518;9.124;2023-03-01T04:08:04;-0.90;99.90
31735;DHT22;18313;48.518;9.124;2023-03-01T04:10:45;-0.90;99.90
31735;DHT22;18313;48.518;9.124;2023-03-01T04:13:14;-0.80;99.90
31735;DHT22;18313;48.518;9.124;2023-03-01T04:15:42;-0.80;99.90
31735;DHT22;18313;48.518;9.124;2023-03-01T04:18:12;-0.80;99.90
31735;DHT22;18313;48.518;9.124;2023-03-01T04:20:41;-0.80;99.90
31735;DHT22;18313;48.518;9.124;2023-03-01T04:23:11;-0.80;99.90
31735;DHT22;18313;48.518;9.124;2023-03-01T04:25:53;-0.80;99.90
31735;DHT22;18313;48.518;9.124;2023-03-01T04:28:27;-0.80;99.90
31735;DHT22;18313;48.518;9.124;2023-03-01T04:30:56;-0.80;99.90
31735;DHT22;18313;48.518;9.124;2023-03-01T04:33:24;-0.80;99.90
31735;DHT22;18313;48.518;9.124;2023-03-01T04:35:52;-0.70;99.90
31735;DHT22;18313;48.518;9.124;2023-03-01T04:38:19;-0.80;99.90
31735;DHT22;18313;48.518;9.124;2023-03-01T04:40:48;-0.70;99.90
31735;DHT22;18313;48.518;9.124;2023-03-01T04:43:15;-0.70;99.90
31735;DHT22;18313;48.518;9.124;2023-03-01T04:45:43;-0.70;99.90
31735;DHT22;18313;48.518;9.124;2023-03-01T04:48:10;-0.70;99.90
31735;DHT22;18313;48.518;9.124;2023-03-01T04:50:37;-0.80;99.90
31735;DHT22;18313;48.518;9.124;2023-03-01T04:53:04;-0.70;99.90
31735;DHT22;18313;48.518;9.124;2023-03-01T04:55:31;-0.70;99.90
31735;DHT22;18313;48.518;9.124;2023-03-01T04:57:58;-0.70;99.90
31735;DHT22;18313;48.518;9.124;2023-03-01T05:00:25;-0.60;99.90
31735;DHT22;18313;48.518;9.124;2023-03-01T05:02:55;-0.60;99.90
31735;DHT22;18313;48.518;9.124;2023-03-01T05:05:26;-0.60;99.90
31735;DHT22;18313;48.518;9.124;2023-03-01T05:07:56;-0.60;99.90
31735;DHT22;18313;48.518;9.124;2023-03-01T05:10:24;-0.60;99.90
31735;DHT22;18313;48.518;9.124;2023-03-01T05:12:51;-0.60;99.90
31735;DHT22;18313;48.518;9.124;2023-03-01T05:15:21;-0.60;99.90
31735;DHT22;18313;48.518;9.124;2023-03-01T05:17:49;-0.60;99.90
31735;DHT22;18313;48.518;9.124;2023-03-01T05:20:16;-0.60;99.90
31735;DHT22;18313;48.518;9.124;2023-03-01T05:22:43;-0.60;99.90
31735;DHT22;18313;48.518;9.124;2023-03-01T05:25:10;-0.60;99.90
31735;DHT22;18313;48.518;9.124;2023-03-01T05:27:37;-0.60;99.90
31735;DHT22;18313;48.518;9.124;2023-03-01T05:30:05;-0.60;99.90
31735;DHT22;18313;48.518;9.124;2023-03-01T05:32:42;-0.60;99.90
31735;DHT22;18313;48.518;9.124;2023-03-01T05:35:12;-0.50;99.90
31735;DHT22;18313;48.518;9.124;2023-03-01T05:37:44;-0.50;99.90
31735;DHT22;18313;48.518;9.124;2023-03-01T05:40:14;-0.40;99.90
31735;DHT22;18313;48.518;9.124;2023-03-01T05:42:50;-0.50;99.90
31735;DHT22;18313;48.518;9.124;2023-03-01T05:45:18;-0.40;99.90
31735;DHT22;18313;48.518;9.124;2023-03-01T05:47:47;-0.50;99.90
31735;DHT22;18313;48.518;9.124;2023-03-01T05:50:17;-0.40;99.90
31735;DHT22;18313;48.518;9.124;2023-03-01T05:52:49;-0.40;99.90
31735;DHT22;18313;48.518;9.124;2023-03-01T05:55:18;-0.40;99.90
31735;DHT22;18313;48.518;9.124;2023-03-01T05:57:45;-0.40;99.90
31735;DHT22;18313;48.518;9.124;2023-03-01T06:00:14;-0.40;99.90
31735;DHT22;18313;48.518;9.124;2023-03-01T06:02:42;-0.40;99.90
31735;DHT22;18313;48.518;9.124;2023-03-01T06:05:10;-0.40;99.90
31735;DHT22;18313;48.518;9.124;2023-03-01T06:07:38;-0.40;99.90
31735;DHT22;18313;48.518;9.124;2023-03-01T06:10:06;-0.30;99.90
31735;DHT22;18313;48.518;9.124;2023-03-01T06:12:35;-0.40;99.90
31735;DHT22;18313;48.518;9.124;2023-03-01T06:15:04;-0.30;99.90
31735;DHT22;18313;48.518;9.124;2023-03-01T06:17:33;-0.30;99.90
31735;DHT22;18313;48.518;9.124;2023-03-01T06:20:06;-0.30;99.90
31735;DHT22;18313;48.518;9.124;2023-03-01T06:22:33;-0.30;99.90
31735;DHT22;18313;48.518;9.124;2023-03-01T06:25:00;-0.30;99.90
31735;DHT22;18313;48.518;9.124;2023-03-01T06:27:27;-0.30;99.90
31735;DHT22;18313;48.518;9.124;2023-03-01T06:29:54;-0.30;99.90
31735;DHT22;18313;48.518;9.124;2023-03-01T06:32:21;-0.30;99.90
31735;DHT22;18313;48.518;9.124;2023-03-01T06:34:49;-0.20;99.90
31735;DHT22;18313;48.518;9.124;2023-03-01T06:37:16;-0.20;99.90
31735;DHT22;18313;48.518;9.124;2023-03-01T06:39:43;-0.20;99.90
31735;DHT22;18313;48.518;9.124;2023-03-01T06:42:10;-0.20;99.90
31735;DHT22;18313;48.518;9.124;2023-03-01T06:44:37;-0.20;99.90
31735;DHT22;18313;48.518;9.124;2023-03-01T06:47:05;-0.30;99.90
31735;DHT22;18313;48.518;9.124;2023-03-01T06:49:32;-0.30;99.90
31735;DHT22;18313;48.518;9.124;2023-03-01T06:51:59;-0.30;99.90
31735;DHT22;18313;48.518;9.124;2023-03-01T06:54:26;-0.30;99.90
31735;DHT22;18313;48.518;9.124;2023-03-01T06:56:53;-0.20;99.90
31735;DHT22;18313;48.518;9.124;2023-03-01T06:59:20;-0.20;99.90
31735;DHT22;18313;48.518;9.124;2023-03-01T07:01:48;-0.20;99.90
31735;DHT22;18313;48.518;9.124;2023-03-01T07:04:15;-0.20;99.90
31735;DHT22;18313;48.518;9.124;2023-03-01T07:06:42;-0.20;99.90
31735;DHT22;18313;48.518;9.124;2023-03-01T07:09:09;-0.20;99.90
31735;DHT22;18313;48.518;9.124;2023-03-01T07:11:36;-0.20;99.90
31735;DHT22;18313;48.518;9.124;2023-03-01T07:14:03;-0.20;99.90
31735;DHT22;18313;48.518;9.124;2023-03-01T07:16:31;-0.30;99.90
31735;DHT22;18313;48.518;9.124;2023-03-01T07:18:59;-0.30;99.90
31735;DHT22;18313;48.518;9.124;2023-03-01T07:21:26;-0.20;99.90
31735;DHT22;18313;48.518;9.124;2023-03-01T07:23:53;-0.30;99.90
31735;DHT22;18313;48.518;9.124;2023-03-01T07:26:20;-0.30;99.90
31735;DHT22;18313;48.518;9.124;2023-03-01T07:28:49;-0.20;99.90
31735;DHT22;18313;48.518;9.124;2023-03-01T07:31:16;-0.20;99.90
31735;DHT22;18313;48.518;9.124;2023-03-01T07:33:43;-0.20;99.90
31735;DHT22;18313;48.518;9.124;2023-03-01T07:36:11;-0.10;99.90
31735;DHT22;18313;48.518;9.124;2023-03-01T07:38:38;-0.10;99.90
31735;DHT22;18313;48.518;9.124;2023-03-01T07:41:06;-0.10;99.90
31735;DHT22;18313;48.518;9.124;2023-03-01T07:43:33;-0.10;99.90
31735;DHT22;18313;48.518;9.124;2023-03-01T07:46:01;0.00;99.90
31735;DHT22;18313;48.518;9.124;2023-03-01T07:48:30;0.10;99.90
31735;DHT22;18313;48.518;9.124;2023-03-01T07:50:59;0.10;99.90
31735;DHT22;18313;48.518;9.124;2023-03-01T07:53:27;0.20;99.90
31735;DHT22;18313;48.518;9.124;2023-03-01T07:56:11;0.30;99.90
31735;DHT22;18313;48.518;9.124;2023-03-01T07:58:41;0.40;99.90
31735;DHT22;18313;48.518;9.124;2023-03-01T08:01:11;0.40;99.90
31735;DHT22;18313;48.518;9.124;2023-03-01T08:03:39;0.40;99.90
31735;DHT22;18313;48.518;9.124;2023-03-01T08:06:08;0.50;99.90
31735;DHT22;18313;48.518;9.124;2023-03-01T08:08:37;0.60;99.90
31735;DHT22;18313;48.518;9.124;2023-03-01T08:11:06;0.60;99.90
31735;DHT22;18313;48.518;9.124;2023-03-01T08:13:34;0.60;99.90
31735;DHT22;18313;48.518;9.124;2023-03-01T08:16:12;0.70;99.90
31735;DHT22;18313;48.518;9.124;2023-03-01T08:18:40;0.70;99.90
31735;DHT22;18313;48.518;9.124;2023-03-01T08:21:12;0.80;99.90
31735;DHT22;18313;48.518;9.124;2023-03-01T08:23:40;0.80;99.90
31735;DHT22;18313;48.518;9.124;2023-03-01T08:26:15;0.90;99.90
31735;DHT22;18313;48.518;9.124;2023-03-01T08:28:42;0.90;99.90
31735;DHT22;18313;48.518;9.124;2023-03-01T08:31:32;1.10;99.90
31735;DHT22;18313;48.518;9.124;2023-03-01T08:34:01;1.20;99.90
31735;DHT22;18313;48.518;9.124;2023-03-01T08:36:31;1.20;99.90
31735;DHT22;18313;48.518;9.124;2023-03-01T08:38:59;1.20;99.90
31735;DHT22;18313;48.518;9.124;2023-03-01T08:41:27;1.20;99.90
31735;DHT22;18313;48.518;9.124;2023-03-01T08:43:54;1.30;99.90
31735;DHT22;18313;48.518;9.124;2023-03-01T08:46:33;1.40;99.90
31735;DHT22;18313;48.518;9.124;2023-03-01T08:49:11;1.50;99.90
31735;DHT22;18313;48.518;9.124;2023-03-01T08:51:39;1.70;99.90
31735;DHT22;18313;48.518;9.124;2023-03-01T08:54:10;1.60;99.90
31735;DHT22;18313;48.518;9.124;2023-03-01T08:56:38;1.60;99.90
31735;DHT22;18313;48.518;9.124;2023-03-01T08:59:05;1.60;99.90
31735;DHT22;18313;48.518;9.124;2023-03-01T09:01:32;1.70;99.90
31735;DHT22;18313;48.518;9.124;2023-03-01T09:03:59;1.70;99.90
31735;DHT22;18313;48.518;9.124;2023-03-01T09:06:26;1.80;99.90
31735;DHT22;18313;48.518;9.124;2023-03-01T09:08:54;1.90;99.90
31735;DHT22;18313;48.518;9.124;2023-03-01T09:11:22;2.10;99.90
31735;DHT22;18313;48.518;9.124;2023-03-01T09:13:49;2.20;99.90
31735;DHT22;18313;48.518;9.124;2023-03-01T09:16:18;2.30;99.90
31735;DHT22;18313;48.518;9.124;2023-03-01T09:18:52;2.40;99.90
31735;DHT22;18313;48.518;9.124;2023-03-01T09:21:21;2.60;99.90
31735;DHT22;18313;48.518;9.124;2023-03-01T09:24:04;2.60;99.90
31735;DHT22;18313;48.518;9.124;2023-03-01T09:26:32;2.60;99.90
31735;DHT22;18313;48.518;9.124;2023-03-01T09:28:59;2.50;99.90
31735;DHT22;18313;48.518;9.124;2023-03-01T09:31:26;2.60;99.90
31735;DHT22;18313;48.518;9.124;2023-03-01T09:33:53;2.50;99.90
31735;DHT22;18313;48.518;9.124;2023-03-01T09:36:23;2.60;99.90
31735;DHT22;18313;48.518;9.124;2023-03-01T09:38:52;2.90;99.90
31735;DHT22;18313;48.518;9.124;2023-03-01T09:41:54;3.30;99.90
31735;DHT22;18313;48.518;9.124;2023-03-01T09:44:53;3.30;99.90
31735;DHT22;18313;48.518;9.124;2023-03-01T09:47:25;3.50;99.90
31735;DHT22;18313;48.518;9.124;2023-03-01T09:50:13;3.40;99.90
31735;DHT22;18313;48.518;9.124;2023-03-01T09:52:53;3.60;99.90
31735;DHT22;18313;48.518;9.124;2023-03-01T09:55:30;3.80;99.90
31735;DHT22;18313;48.518;9.124;2023-03-01T09:58:06;4.00;99.90
31735;DHT22;18313;48.518;9.124;2023-03-01T10:00:47;4.10;99.90
31735;DHT22;18313;48.518;9.124;2023-03-01T10:03:17;4.10;99.90
31735;DHT22;18313;48.518;9.124;2023-03-01T10:06:04;4.10;99.90
31735;DHT22;18313;48.518;9.124;2023-03-01T10:09:10;4.20;99.90
31735;DHT22;18313;48.518;9.124;2023-03-01T10:11:42;3.80;99.90
31735;DHT22;18313;48.518;9.124;2023-03-01T10:14:35;3.70;99.90
31735;DHT22;18313;48.518;9.124;2023-03-01T10:17:09;3.60;99.90
31735;DHT22;18313;48.518;9.124;2023-03-01T10:22:30;3.70;99.90
31735;DHT22;18313;48.518;9.124;2023-03-01T10:24:59;3.80;99.90
31735;DHT22;18313;48.518;9.124;2023-03-01T10:27:38;3.90;99.90
31735;DHT22;18313;48.518;9.124;2023-03-01T10:30:13;3.90;99.90
31735;DHT22;18313;48.518;9.124;2023-03-01T10:32:44;4.10;99.90
31735;DHT22;18313;48.518;9.124;2023-03-01T10:35:26;4.30;99.90
31735;DHT22;18313;48.518;9.124;2023-03-01T10:38:13;4.40;99.90
31735;DHT22;18313;48.518;9.124;2023-03-01T10:41:04;4.50;99.90
31735;DHT22;18313;48.518;9.124;2023-03-01T10:43:50;4.80;99.90
31735;DHT22;18313;48.518;9.124;2023-03-01T10:46:27;4.90;99.90
31735;DHT22;18313;48.518;9.124;2023-03-01T10:49:14;4.90;99.90
31735;DHT22;18313;48.518;9.124;2023-03-01T10:51:44;5.10;99.90
31735;DHT22;18313;48.518;9.124;2023-03-01T10:56:57;5.30;99.90
31735;DHT22;18313;48.518;9.124;2023-03-01T11:02:16;5.20;99.90
31735;DHT22;18313;48.518;9.124;2023-03-01T11:05:07;5.40;99.90
31735;DHT22;18313;48.518;9.124;2023-03-01T11:07:48;5.60;99.30
31735;DHT22;18313;48.518;9.124;2023-03-01T11:10:20;5.70;99.90
31735;DHT22;18313;48.518;9.124;2023-03-01T11:12:48;5.70;99.60
31735;DHT22;18313;48.518;9.124;2023-03-01T11:15:23;5.80;99.10
31735;DHT22;18313;48.518;9.124;2023-03-01T11:17:51;6.00;99.80
31735;DHT22;18313;48.518;9.124;2023-03-01T11:20:34;6.10;99.30
31735;DHT22;18313;48.518;9.124;2023-03-01T11:23:13;6.10;99.10
31735;DHT22;18313;48.518;9.124;2023-03-01T11:25:48;6.30;98.70
31735;DHT22;18313;48.518;9.124;2023-03-01T11:28:17;6.30;98.10
31735;DHT22;18313;48.518;9.124;2023-03-01T11:30:54;6.10;98.60
31735;DHT22;18313;48.518;9.124;2023-03-01T11:36:26;6.40;98.20
31735;DHT22;18313;48.518;9.124;2023-03-01T11:38:55;6.10;98.00
31735;DHT22;18313;48.518;9.124;2023-03-01T11:41:27;6.10;97.80
31735;DHT22;18313;48.518;9.124;2023-03-01T11:46:44;6.40;98.20
31735;DHT22;18313;48.518;9.124;2023-03-01T12:06:12;6.90;97.60
31735;DHT22;18313;48.518;9.124;2023-03-01T12:11:37;7.00;97.00
31735;DHT22;18313;48.518;9.124;2023-03-01T12:14:36;7.10;97.50
31735;DHT22;18313;48.518;9.124;2023-03-01T12:20:31;7.20;96.50
31735;DHT22;18313;48.518;9.124;2023-03-01T12:23:38;7.00;97.00
31735;DHT22;18313;48.518;9.124;2023-03-01T12:37:17;7.40;95.70
31735;DHT22;18313;48.518;9.124;2023-03-01T12:42:45;7.10;96.30
31735;DHT22;18313;48.518;9.124;2023-03-01T12:47:55;7.90;95.90
31735;DHT22;18313;48.518;9.124;2023-03-01T12:53:01;7.80;95.50
31735;DHT22;18313;48.518;9.124;2023-03-01T12:55:35;7.60;95.50
31735;DHT22;18313;48.518;9.124;2023-03-01T13:11:51;7.90;95.30
31735;DHT22;18313;48.518;9.124;2023-03-01T13:16:52;8.00;95.70
31735;DHT22;18313;48.518;9.124;2023-03-01T13:19:22;8.00;95.80
31735;DHT22;18313;48.518;9.124;2023-03-01T13:21:52;8.20;95.70
31735;DHT22;18313;48.518;9.124;2023-03-01T13:29:45;8.70;94.60
31735;DHT22;18313;48.518;9.124;2023-03-01T13:37:32;8.00;95.20
31735;DHT22;18313;48.518;9.124;2023-03-01T13:40:04;8.20;94.80
31735;DHT22;18313;48.518;9.124;2023-03-01T13:42:33;8.40;94.50
31735;DHT22;18313;48.518;9.124;2023-03-01T13:45:01;8.40;94.40
31735;DHT22;18313;48.518;9.124;2023-03-01T13:47:28;8.50;95.00
31735;DHT22;18313;48.518;9.124;2023-03-01T13:52:39;8.50;95.00
31735;DHT22;18313;48.518;9.124;2023-03-01T13:55:23;8.50;94.70
31735;DHT22;18313;48.518;9.124;2023-03-01T13:57:55;8.70;94.20
31735;DHT22;18313;48.518;9.124;2023-03-01T14:03:20;8.80;94.60
31735;DHT22;18313;48.518;9.124;2023-03-01T14:06:04;8.80;94.20
31735;DHT22;18313;48.518;9.124;2023-03-01T14:08:48;8.80;94.10
31735;DHT22;18313;48.518;9.124;2023-03-01T14:14:17;8.70;94.50
31735;DHT22;18313;48.518;9.124;2023-03-01T14:19:27;8.60;94.10
31735;DHT22;18313;48.518;9.124;2023-03-01T14:22:23;8.30;94.00
31735;DHT22;18313;48.518;9.124;2023-03-01T14:24:59;8.40;94.50
31735;DHT22;18313;48.518;9.124;2023-03-01T14:27:32;8.50;94.30
31735;DHT22;18313;48.518;9.124;2023-03-01T14:30:02;8.50;94.90
31735;DHT22;18313;48.518;9.124;2023-03-01T14:32:31;8.80;94.40
31735;DHT22;18313;48.518;9.124;2023-03-01T14:34:59;8.90;94.10
31735;DHT22;18313;48.518;9.124;2023-03-01T14:39:57;8.90;94.10
31735;DHT22;18313;48.518;9.124;2023-03-01T14:42:29;8.80;93.60
31735;DHT22;18313;48.518;9.124;2023-03-01T14:44:58;8.70;94.10
31735;DHT22;18313;48.518;9.124;2023-03-01T14:47:33;8.70;93.60
31735;DHT22;18313;48.518;9.124;2023-03-01T14:50:42;8.70;94.40
31735;DHT22;18313;48.518;9.124;2023-03-01T14:53:22;8.60;93.90
31735;DHT22;18313;48.518;9.124;2023-03-01T14:55:54;8.40;94.30
31735;DHT22;18313;48.518;9.124;2023-03-01T14:58:24;8.50;94.30
31735;DHT22;18313;48.518;9.124;2023-03-01T15:00:57;8.50;94.60
31735;DHT22;18313;48.518;9.124;2023-03-01T15:03:36;8.40;94.40
31735;DHT22;18313;48.518;9.124;2023-03-01T15:06:06;8.40;93.80
31735;DHT22;18313;48.518;9.124;2023-03-01T15:08:35;8.50;94.20
31735;DHT22;18313;48.518;9.124;2023-03-01T15:13:52;8.50;94.20
31735;DHT22;18313;48.518;9.124;2023-03-01T15:18:57;8.80;93.60
31735;DHT22;18313;48.518;9.124;2023-03-01T15:21:31;8.60;93.90
31735;DHT22;18313;48.518;9.124;2023-03-01T15:26:55;8.20;94.60
31735;DHT22;18313;48.518;9.124;2023-03-01T15:29:27;8.10;94.80
31735;DHT22;18313;48.518;9.124;2023-03-01T15:31:58;8.00;95.00
31735;DHT22;18313;48.518;9.124;2023-03-01T15:34:28;7.90;94.90
31735;DHT22;18313;48.518;9.124;2023-03-01T15:36:58;8.00;95.00
31735;DHT22;18313;48.518;9.124;2023-03-01T15:41:57;7.80;94.90
31735;DHT22;18313;48.518;9.124;2023-03-01T15:44:34;7.80;95.10
31735;DHT22;18313;48.518;9.124;2023-03-01T15:47:25;7.70;95.20
31735;DHT22;18313;48.518;9.124;2023-03-01T15:49:54;7.70;95.10
31735;DHT22;18313;48.518;9.124;2023-03-01T15:52:40;7.60;95.30
31735;DHT22;18313;48.518;9.124;2023-03-01T15:55:25;7.60;95.30
31735;DHT22;18313;48.518;9.124;2023-03-01T15:58:18;7.50;95.60
31735;DHT22;18313;48.518;9.124;2023-03-01T16:00:48;7.60;95.60
31735;DHT22;18313;48.518;9.124;2023-03-01T16:03:26;7.60;95.70
31735;DHT22;18313;48.518;9.124;2023-03-01T16:05:53;7.60;95.80
31735;DHT22;18313;48.518;9.124;2023-03-01T16:08:20;7.70;95.10
31735;DHT22;18313;48.518;9.124;2023-03-01T16:10:49;7.50;95.60
31735;DHT22;18313;48.518;9.124;2023-03-01T16:13:17;7.50;95.50
31735;DHT22;18313;48.518;9.124;2023-03-01T16:15:45;7.50;96.00
31735;DHT22;18313;48.518;9.124;2023-03-01T16:18:11;7.50;95.30
31735;DHT22;18313;48.518;9.124;2023-03-01T16:20:39;7.40;95.70
31735;DHT22;18313;48.518;9.124;2023-03-01T16:23:08;7.40;95.70
31735;DHT22;18313;48.518;9.124;2023-03-01T16:25:39;7.30;95.50
31735;DHT22;18313;48.518;9.124;2023-03-01T16:28:07;7.20;95.40
31735;DHT22;18313;48.518;9.124;2023-03-01T16:30:38;7.10;95.60
31735;DHT22;18313;48.518;9.124;2023-03-01T16:33:06;7.00;95.90
31735;DHT22;18313;48.518;9.124;2023-03-01T16:35:50;7.00;95.90
31735;DHT22;18313;48.518;9.124;2023-03-01T16:38:17;7.00;95.70
31735;DHT22;18313;48.518;9.124;2023-03-01T16:40:50;6.90;95.80
31735;DHT22;18313;48.518;9.124;2023-03-01T16:43:17;6.80;95.90
31735;DHT22;18313;48.518;9.124;2023-03-01T16:45:44;6.80;96.10
31735;DHT22;18313;48.518;9.124;2023-03-01T16:48:12;6.70;96.30
31735;DHT22;18313;48.518;9.124;2023-03-01T16:50:40;6.70;96.30
31735;DHT22;18313;48.518;9.124;2023-03-01T16:53:07;6.70;96.50
31735;DHT22;18313;48.518;9.124;2023-03-01T16:55:34;6.60;96.20
31735;DHT22;18313;48.518;9.124;2023-03-01T16:58:02;6.50;96.40
31735;DHT22;18313;48.518;9.124;2023-03-01T17:00:31;6.50;96.50
31735;DHT22;18313;48.518;9.124;2023-03-01T17:02:58;6.40;96.60
31735;DHT22;18313;48.518;9.124;2023-03-01T17:05:25;6.40;96.70
31735;DHT22;18313;48.518;9.124;2023-03-01T17:07:52;6.30;96.60
31735;DHT22;18313;48.518;9.124;2023-03-01T17:10:22;6.20;96.80
31735;DHT22;18313;48.518;9.124;2023-03-01T17:12:49;6.20;96.80
31735;DHT22;18313;48.518;9.124;2023-03-01T17:15:17;6.20;96.90
31735;DHT22;18313;48.518;9.124;2023-03-01T17:17:44;6.10;97.00
31735;DHT22;18313;48.518;9.124;2023-03-01T17:20:12;6.20;96.90
31735;DHT22;18313;48.518;9.124;2023-03-01T17:22:39;6.10;96.90
31735;DHT22;18313;48.518;9.124;2023-03-01T17:25:10;6.10;96.90
31735;DHT22;18313;48.518;9.124;2023-03-01T17:27:39;6.00;97.20
31735;DHT22;18313;48.518;9.124;2023-03-01T17:30:08;6.00;97.20
31735;DHT22;18313;48.518;9.124;2023-03-01T17:32:36;5.90;97.20
31735;DHT22;18313;48.518;9.124;2023-03-01T17:35:04;5.90;97.40
31735;DHT22;18313;48.518;9.124;2023-03-01T17:37:31;5.80;97.50
31735;DHT22;18313;48.518;9.124;2023-03-01T17:39:58;5.70;97.50
31735;DHT22;18313;48.518;9.124;2023-03-01T17:42:27;5.60;97.70
31735;DHT22;18313;48.518;9.124;2023-03-01T17:44:55;5.60;97.60
31735;DHT22;18313;48.518;9.124;2023-03-01T17:47:22;5.50;97.90
31735;DHT22;18313;48.518;9.124;2023-03-01T17:49:49;5.40;97.90
31735;DHT22;18313;48.518;9.124;2023-03-01T17:52:17;5.40;98.20
31735;DHT22;18313;48.518;9.124;2023-03-01T17:54:44;5.40;98.20
31735;DHT22;18313;48.518;9.124;2023-03-01T17:57:11;5.40;98.10
31735;DHT22;18313;48.518;9.124;2023-03-01T17:59:39;5.40;98.20